Time;durP1;ratioP1;P1;durP2;ratioP2;P2;SDS_P1;SDS_P2;PMS_P1;PMS_P2;Temp;Humidity;BMP_temperature;BMP_pressure;BME280_temperature;BME280_humidity;BME280_pressure;Samples;Min_cycle;Max_cycle;Signal;HPM_P1;HPM_P2
2023/06/14 00:01:45;;;;;;;8.93;4.25;;;17.00;84.90;;;;;;5065452;28;20036;-70
2023/06/14 00:04:16;;;;;;;8.43;4.00;;;17.00;85.40;;;;;;5062283;28;20064;-70
2023/06/14 00:06:45;;;;;;;6.47;3.88;;;16.90;85.50;;;;;;5069332;28;20047;-63
2023/06/14 00:09:13;;;;;;;5.30;3.60;;;16.90;85.80;;;;;;5063208;28;20056;-64
2023/06/14 00:11:41;;;;;;;13.70;3.45;;;16.80;85.80;;;;;;5063211;28;20040;-63
2023/06/14 00:14:09;;;;;;;7.57;4.07;;;16.80;86.20;;;;;;5043660;28;20048;-64
2023/06/14 00:16:38;;;;;;;6.63;3.50;;;16.70;86.30;;;;;;5058298;28;20041;-63
2023/06/14 00:19:06;;;;;;;9.77;4.22;;;16.70;86.60;;;;;;5059756;28;20412;-66
2023/06/14 00:21:34;;;;;;;8.57;3.60;;;16.60;86.50;;;;;;5049838;28;20045;-65
2023/06/14 00:24:02;;;;;;;9.88;3.42;;;16.60;86.70;;;;;;5059743;28;20060;-62
2023/06/14 00:26:30;;;;;;;10.13;3.40;;;16.60;86.70;;;;;;5068770;28;20071;-64
2023/06/14 00:28:58;;;;;;;4.60;3.05;;;16.60;86.50;;;;;;5068354;28;20047;-63
2023/06/14 00:31:27;;;;;;;4.68;3.35;;;16.50;86.20;;;;;;5059925;28;20330;-63
2023/06/14 00:33:55;;;;;;;5.88;3.40;;;16.50;85.90;;;;;;5065871;28;20871;-65
2023/06/14 00:36:22;;;;;;;6.18;3.63;;;16.50;85.70;;;;;;5058134;28;20373;-65
2023/06/14 00:38:50;;;;;;;7.80;3.58;;;16.40;85.80;;;;;;5061174;28;20048;-63
2023/06/14 00:41:18;;;;;;;5.97;2.97;;;16.40;86.20;;;;;;5034536;28;20053;-63
2023/06/14 00:43:46;;;;;;;8.13;3.10;;;16.30;86.30;;;;;;5066546;28;20037;-63
2023/06/14 00:46:15;;;;;;;13.55;3.20;;;;;;;;;;5069103;28;20045;-64
2023/06/14 00:48:43;;;;;;;6.40;2.78;;;16.20;85.10;;;;;;5060275;28;20051;-63
2023/06/14 00:51:10;;;;;;;6.05;2.45;;;16.10;82.90;;;;;;5045921;28;20064;-63
2023/06/14 00:53:39;;;;;;;4.88;2.40;;;16.10;79.40;;;;;;5059290;28;20644;-63
2023/06/14 00:56:07;;;;;;;7.78;2.30;;;16.10;78.70;;;;;;5067991;28;20048;-61
2023/06/14 00:58:35;;;;;;;5.05;2.20;;;16.00;77.70;;;;;;5066269;28;20388;-62
2023/06/14 01:01:03;;;;;;;3.72;2.33;;;16.00;76.50;;;;;;5049432;28;20059;-62
2023/06/14 01:03:33;;;;;;;7.30;2.53;;;16.00;76.50;;;;;;5061980;28;20041;-61
2023/06/14 01:06:29;;;;;;;4.30;2.30;;;16.00;75.00;;;;;;5063540;28;20056;-61
2023/06/14 01:09:09;;;;;;;3.08;2.05;;;15.90;74.90;;;;;;5030750;28;20367;-62
2023/06/14 01:11:47;;;;;;;9.90;2.05;;;15.90;74.30;;;;;;5064799;28;20048;-62
2023/06/14 01:14:17;;;;;;;4.25;2.13;;;15.80;74.60;;;;;;5073396;28;20051;-62
2023/06/14 01:16:47;;;;;;;6.60;2.45;;;15.80;74.90;;;;;;5070615;28;20396;-61
2023/06/14 01:19:15;;;;;;;5.55;1.92;;;15.80;75.60;;;;;;5061921;28;20056;-62
2023/06/14 01:21:43;;;;;;;4.40;1.75;;;15.60;75.50;;;;;;5063297;28;20057;-63
2023/06/14 01:24:11;;;;;;;4.40;2.13;;;15.60;76.00;;;;;;5059080;28;20041;-61
2023/06/14 01:26:45;;;;;;;5.90;1.95;;;15.50;76.70;;;;;;5067072;28;20613;-62
2023/06/14 01:29:18;;;;;;;6.60;2.50;;;15.40;76.50;;;;;;5065651;28;20399;-61
2023/06/14 01:31:47;;;;;;;6.22;2.25;;;15.30;77.10;;;;;;5055119;28;20063;-61
2023/06/14 01:34:15;;;;;;;5.90;2.47;;;15.30;78.00;;;;;;5060290;28;20048;-62
2023/06/14 01:36:45;;;;;;;3.38;2.00;;;15.10;78.10;;;;;;5053422;28;20048;-62
2023/06/14 01:39:18;;;;;;;3.72;1.83;;;15.10;79.20;;;;;;5064295;28;20051;-61
2023/06/14 01:41:47;;;;;;;7.60;3.20;;;15.00;79.80;;;;;;5062974;28;20416;-63
2023/06/14 01:44:18;;;;;;;4.38;1.77;;;15.00;80.60;;;;;;5054429;28;20408;-60
2023/06/14 01:46:47;;;;;;;8.02;2.75;;;14.90;81.20;;;;;;5059973;28;20041;-69
2023/06/14 01:49:14;;;;;;;7.70;2.17;;;14.80;81.90;;;;;;5044804;28;20052;-61
2023/06/14 01:51:42;;;;;;;8.35;1.92;;;14.70;82.80;;;;;;5066211;28;20506;-61
2023/06/14 01:54:10;;;;;;;5.00;1.95;;;14.60;83.50;;;;;;5051584;28;20048;-61
2023/06/14 01:56:38;;;;;;;5.07;1.80;;;14.50;84.40;;;;;;5053111;28;20056;-62
2023/06/14 01:59:07;;;;;;;5.72;1.92;;;;;;;;;;5049859;28;20040;-62
2023/06/14 02:01:36;;;;;;;4.95;1.77;;;14.30;85.60;;;;;;5055102;28;20060;-61
2023/06/14 02:04:04;;;;;;;3.50;1.80;;;14.30;87.00;;;;;;5053525;28;20067;-64
2023/06/14 02:06:33;;;;;;;3.53;1.98;;;14.20;87.50;;;;;;5069259;28;20495;-61
2023/06/14 02:09:02;;;;;;;3.53;1.60;;;14.10;88.10;;;;;;5068237;28;20040;-64
2023/06/14 02:11:30;;;;;;;6.05;2.15;;;14.00;88.70;;;;;;5050187;28;20045;-60
2023/06/14 02:13:59;;;;;;;10.10;2.03;;;13.90;89.20;;;;;;5057078;28;20530;-61
2023/06/14 02:16:29;;;;;;;7.68;2.30;;;13.80;89.70;;;;;;5061024;28;20045;-61
2023/06/14 02:18:57;;;;;;;4.75;1.80;;;13.70;90.20;;;;;;5050492;28;20045;-61
2023/06/14 02:21:25;;;;;;;4.97;2.08;;;13.60;90.40;;;;;;5059693;28;20052;-61
2023/06/14 02:23:53;;;;;;;7.35;2.72;;;13.50;90.60;;;;;;5059949;28;20488;-62
2023/06/14 02:26:20;;;;;;;7.38;2.60;;;13.50;91.00;;;;;;5069296;28;20037;-60
2023/06/14 02:28:48;;;;;;;5.00;2.90;;;13.50;91.40;;;;;;5067752;28;20045;-60
2023/06/14 02:31:16;;;;;;;4.07;2.33;;;13.40;91.80;;;;;;5054203;28;20044;-61
2023/06/14 02:33:44;;;;;;;4.88;2.08;;;13.30;92.10;;;;;;5057204;28;20049;-60
2023/06/14 02:36:11;;;;;;;6.13;2.13;;;13.30;92.40;;;;;;5062953;28;20074;-60
2023/06/14 02:38:39;;;;;;;6.53;2.70;;;13.20;92.90;;;;;;5071792;28;20052;-61
2023/06/14 02:41:09;;;;;;;3.60;2.35;;;13.20;93.20;;;;;;5064148;28;20045;-60
2023/06/14 02:43:37;;;;;;;4.20;2.05;;;13.20;93.60;;;;;;5054542;28;20416;-60
2023/06/14 02:46:07;;;;;;;8.40;2.45;;;13.10;94.00;;;;;;5063223;28;20040;-60
2023/06/14 02:48:34;;;;;;;5.43;2.47;;;13.00;94.30;;;;;;5055740;28;20053;-68
2023/06/14 02:51:02;;;;;;;6.88;2.22;;;12.90;94.70;;;;;;5049027;28;20056;-60
2023/06/14 02:53:30;;;;;;;5.22;2.25;;;12.90;94.90;;;;;;5061399;28;20485;-60
2023/06/14 02:55:58;;;;;;;4.60;2.33;;;12.80;95.30;;;;;;5065181;28;20045;-60
2023/06/14 02:58:26;;;;;;;7.28;2.42;;;12.70;95.90;;;;;;5047267;28;20061;-60
2023/06/14 03:00:54;;;;;;;5.43;2.05;;;12.70;96.50;;;;;;5061853;28;20399;-62
2023/06/14 03:03:24;;;;;;;6.93;3.08;;;12.60;97.30;;;;;;5066020;28;20056;-69
2023/06/14 03:05:56;;;;;;;4.70;2.42;;;12.60;97.70;;;;;;5064298;28;20051;-71
2023/06/14 03:08:28;;;;;;;7.70;2.58;;;12.50;98.30;;;;;;5073378;28;20219;-67
2023/06/14 03:11:02;;;;;;;6.10;2.53;;;12.50;98.70;;;;;;5073507;28;20037;-71
2023/06/14 03:13:32;;;;;;;6.28;2.97;;;12.40;99.20;;;;;;5072238;28;20036;-72
2023/06/14 03:16:02;;;;;;;6.68;3.15;;;12.40;99.90;;;;;;5068373;28;20396;-72
2023/06/14 03:18:35;;;;;;;4.55;2.25;;;12.40;99.90;;;;;;5072456;28;20392;-72
2023/06/14 03:21:04;;;;;;;4.20;2.53;;;12.30;99.90;;;;;;5056361;28;20041;-72
2023/06/14 03:23:33;;;;;;;4.82;2.10;;;12.30;99.90;;;;;;5073202;28;20496;-68
2023/06/14 03:26:02;;;;;;;5.75;2.65;;;12.20;99.90;;;;;;5057734;28;20048;-71
2023/06/14 03:28:30;;;;;;;9.20;2.70;;;12.20;99.90;;;;;;5052868;28;20041;-71
2023/06/14 03:30:58;;;;;;;8.93;2.78;;;12.20;99.90;;;;;;5059218;28;20479;-61
2023/06/14 03:33:31;;;;;;;9.10;2.60;;;12.10;99.90;;;;;;5073047;28;20049;-64
2023/06/14 03:35:59;;;;;;;4.57;2.40;;;12.10;99.90;;;;;;5069367;28;20040;-61
2023/06/14 03:38:28;;;;;;;6.07;2.75;;;12.00;99.90;;;;;;5072834;28;20051;-60
2023/06/14 03:40:55;;;;;;;6.80;2.85;;;11.90;99.90;;;;;;5072764;28;20048;-60
2023/06/14 03:43:23;;;;;;;4.15;2.67;;;11.90;99.90;;;;;;5055741;28;20048;-61
2023/06/14 03:45:51;;;;;;;9.90;2.55;;;11.90;99.90;;;;;;5064285;28;20049;-59
2023/06/14 03:48:21;;;;;;;7.28;2.63;;;11.90;99.90;;;;;;5052704;28;20549;-59
2023/06/14 03:50:50;;;;;;;5.95;3.33;;;11.80;99.90;;;;;;5052717;28;20396;-60
2023/06/14 03:53:20;;;;;;;10.15;3.47;;;11.80;99.90;;;;;;5052615;28;20056;-63
2023/06/14 03:55:52;;;;;;;6.93;3.13;;;11.80;99.90;;;;;;5052155;28;20519;-62
2023/06/14 03:58:28;;;;;;;8.48;3.80;;;11.80;99.90;;;;;;5072338;28;20075;-61
2023/06/14 04:00:56;;;;;;;7.32;3.40;;;11.80;99.90;;;;;;5071915;28;20048;-60
2023/06/14 04:03:29;;;;;;;7.78;2.85;;;11.80;99.90;;;;;;5068971;28;20397;-61
2023/06/14 04:05:59;;;;;;;8.07;2.85;;;11.80;99.90;;;;;;5059919;28;20530;-60
2023/06/14 04:08:27;;;;;;;7.53;3.17;;;11.80;99.90;;;;;;5074844;28;20056;-62
2023/06/14 04:10:55;;;;;;;12.60;2.85;;;11.80;99.90;;;;;;5073749;28;20395;-60
2023/06/14 04:13:23;;;;;;;5.47;2.85;;;11.80;99.90;;;;;;5072474;28;20044;-72
2023/06/14 04:15:51;;;;;;;4.55;2.50;;;11.70;99.90;;;;;;5062432;28;20037;-71
2023/06/14 04:18:25;;;;;;;4.82;2.78;;;11.70;99.90;;;;;;5052733;28;20044;-71
2023/06/14 04:20:54;;;;;;;9.10;3.55;;;11.80;99.90;;;;;;5072369;28;20408;-71
2023/06/14 04:23:21;;;;;;;6.80;2.65;;;11.70;99.90;;;;;;5072122;28;20041;-72
2023/06/14 04:25:50;;;;;;;4.32;2.67;;;11.70;99.90;;;;;;5069502;28;20487;-72
2023/06/14 04:28:19;;;;;;;8.45;2.85;;;11.70;99.90;;;;;;5072108;28;20045;-72
2023/06/14 04:30:47;;;;;;;5.75;2.95;;;11.70;99.90;;;;;;5073331;28;20416;-70
2023/06/14 04:33:17;;;;;;;;;;;11.70;99.90;;;;;;5071366;28;20048;-72
2023/06/14 04:35:47;;;;;;;4.07;2.75;;;11.70;99.90;;;;;;5066049;28;19920;-70
2023/06/14 04:38:16;;;;;;;7.78;3.03;;;11.70;99.90;;;;;;5073520;28;20048;-71
2023/06/14 04:40:44;;;;;;;3.80;2.72;;;11.70;99.90;;;;;;5071848;28;20041;-71
2023/06/14 04:43:17;;;;;;;7.25;3.00;;;11.70;99.90;;;;;;5071999;28;20041;-72
2023/06/14 04:45:46;;;;;;;12.52;3.33;;;11.70;99.90;;;;;;5067642;28;20064;-69
2023/06/14 04:48:15;;;;;;;8.85;2.88;;;11.70;99.90;;;;;;5056475;28;20045;-63
2023/06/14 04:50:43;;;;;;;7.82;3.03;;;11.70;99.90;;;;;;5052541;28;20040;-65
2023/06/14 04:53:11;;;;;;;10.20;3.08;;;11.70;99.90;;;;;;5066714;28;20051;-62
2023/06/14 04:55:39;;;;;;;6.97;2.67;;;11.70;99.90;;;;;;5067469;28;20415;-62
2023/06/14 04:58:08;;;;;;;14.75;3.75;;;11.70;99.90;;;;;;5061283;28;20060;-64
2023/06/14 05:00:35;;;;;;;5.38;2.95;;;11.70;99.90;;;;;;5063955;28;20040;-66
2023/06/14 05:03:05;;;;;;;6.93;3.15;;;11.80;99.90;;;;;;5053763;28;20056;-70
2023/06/14 05:05:34;;;;;;;6.43;3.13;;;11.80;99.90;;;;;;5055727;28;20511;-61
2023/06/14 05:08:02;;;;;;;5.60;2.83;;;11.90;99.90;;;;;;5040196;28;20049;-60
2023/06/14 05:10:29;;;;;;;7.90;3.40;;;11.90;99.90;;;;;;5031053;28;20048;-60
2023/06/14 05:12:57;;;;;;;6.00;3.22;;;11.90;99.90;;;;;;5046081;28;20048;-60
2023/06/14 05:15:25;;;;;;;5.93;3.10;;;12.00;99.90;;;;;;5064547;28;20045;-61
2023/06/14 05:17:55;;;;;;;5.85;3.00;;;12.00;99.90;;;;;;5058598;28;20065;-61
2023/06/14 05:20:26;;;;;;;8.27;2.90;;;12.10;99.90;;;;;;5064107;28;20235;-63
2023/06/14 05:22:54;;;;;;;7.72;3.50;;;12.10;99.90;;;;;;5064080;28;20067;-61
2023/06/14 05:25:22;;;;;;;6.82;3.28;;;12.20;99.90;;;;;;5064487;28;20056;-63
2023/06/14 05:27:50;;;;;;;5.95;3.35;;;12.20;99.90;;;;;;5063045;28;20048;-60
2023/06/14 05:30:18;;;;;;;8.32;3.20;;;12.30;99.90;;;;;;5065851;28;20385;-59
2023/06/14 05:32:46;;;;;;;5.13;3.17;;;12.30;99.90;;;;;;5063935;28;20431;-60
2023/06/14 05:35:14;;;;;;;9.73;3.83;;;12.40;99.90;;;;;;5066145;28;20048;-60
2023/06/14 05:37:43;;;;;;;10.60;4.25;;;12.40;99.90;;;;;;5058674;28;20358;-61
2023/06/14 05:40:11;;;;;;;8.98;3.67;;;12.40;99.90;;;;;;5043954;28;20051;-62
2023/06/14 05:42:38;;;;;;;8.02;3.53;;;12.50;99.90;;;;;;5054322;28;20060;-60
2023/06/14 05:45:06;;;;;;;5.45;2.90;;;12.50;99.90;;;;;;5066817;28;20045;-61
2023/06/14 05:47:34;;;;;;;9.27;4.90;;;12.60;99.90;;;;;;5054640;28;20041;-60
2023/06/14 05:50:02;;;;;;;5.18;2.78;;;12.70;99.90;;;;;;5058958;28;20037;-60
2023/06/14 05:52:31;;;;;;;7.80;2.95;;;12.70;99.90;;;;;;5052541;28;20059;-63
2023/06/14 05:54:59;;;;;;;7.28;3.00;;;12.80;99.90;;;;;;5065896;28;20055;-65
2023/06/14 05:57:28;;;;;;;8.43;2.97;;;12.90;99.90;;;;;;5067028;28;20051;-67
2023/06/14 05:59:55;;;;;;;5.68;3.05;;;12.90;99.90;;;;;;5059581;28;20049;-66
2023/06/14 06:02:23;;;;;;;5.05;2.97;;;13.00;99.90;;;;;;5043414;28;20055;-64
2023/06/14 06:04:51;;;;;;;6.18;2.50;;;13.10;99.90;;;;;;5066304;28;20510;-60
2023/06/14 06:07:19;;;;;;;6.82;3.30;;;13.20;99.90;;;;;;5062013;28;20048;-63
2023/06/14 06:09:46;;;;;;;4.63;2.20;;;13.30;99.90;;;;;;5063122;28;20047;-60
2023/06/14 06:12:14;;;;;;;8.55;2.30;;;13.40;99.90;;;;;;5061697;28;20053;-63
2023/06/14 06:14:42;;;;;;;9.25;2.40;;;13.50;99.90;;;;;;5066154;28;20054;-60
2023/06/14 06:17:10;;;;;;;7.55;2.25;;;13.60;99.90;;;;;;5059653;28;20036;-61
2023/06/14 06:19:39;;;;;;;5.53;2.30;;;13.70;99.90;;;;;;5064875;28;20049;-61
2023/06/14 06:22:07;;;;;;;11.90;2.60;;;13.90;99.90;;;;;;5069227;28;20052;-61
2023/06/14 06:24:35;;;;;;;5.90;2.38;;;14.00;99.90;;;;;;5052245;28;20516;-61
2023/06/14 06:27:03;;;;;;;8.10;2.55;;;14.10;99.90;;;;;;5048627;28;20204;-59
2023/06/14 06:29:31;;;;;;;3.13;2.05;;;14.20;99.90;;;;;;5055783;28;20496;-60
2023/06/14 06:31:58;;;;;;;7.57;2.53;;;14.30;99.90;;;;;;5055549;28;20041;-60
2023/06/14 06:34:26;;;;;;;11.27;2.30;;;14.40;99.90;;;;;;5051539;28;20048;-60
2023/06/14 06:36:55;;;;;;;8.80;2.13;;;14.50;99.90;;;;;;5050250;28;20388;-60
2023/06/14 06:39:22;;;;;;;8.13;2.42;;;14.60;99.90;;;;;;5055327;28;20056;-66
2023/06/14 06:41:50;;;;;;;6.13;1.85;;;14.70;99.90;;;;;;5051749;28;20044;-60
2023/06/14 06:44:28;;;;;;;7.80;2.58;;;14.80;99.90;;;;;;5058296;28;20075;-60
2023/06/14 06:46:57;;;;;;;5.00;2.35;;;14.90;99.90;;;;;;5051541;28;20055;-60
2023/06/14 06:49:26;;;;;;;5.35;2.30;;;15.00;99.90;;;;;;5057870;28;20044;-61
2023/06/14 06:52:02;;;;;;;10.68;3.03;;;15.10;99.90;;;;;;5060011;28;20492;-60
2023/06/14 06:54:30;;;;;;;5.72;1.95;;;15.10;99.90;;;;;;5059949;28;20067;-61
2023/06/14 06:56:58;;;;;;;5.20;1.92;;;15.30;99.90;;;;;;5066081;28;20052;-61
2023/06/14 06:59:26;;;;;;;6.05;2.40;;;15.30;99.90;;;;;;5065339;28;20044;-60
2023/06/14 07:01:53;;;;;;;5.50;2.20;;;15.50;99.90;;;;;;5060804;28;20047;-60
2023/06/14 07:04:21;;;;;;;9.68;2.42;;;15.50;99.90;;;;;;5065178;28;20059;-62
2023/06/14 07:06:49;;;;;;;4.05;2.08;;;15.70;99.90;;;;;;5065129;28;20523;-60
2023/06/14 07:09:18;;;;;;;4.45;2.25;;;15.80;99.90;;;;;;5058286;28;20491;-62
2023/06/14 07:11:46;;;;;;;5.85;2.20;;;15.90;99.90;;;;;;5057913;28;20067;-61
2023/06/14 07:14:14;;;;;;;7.60;2.88;;;16.00;99.90;;;;;;5062646;28;20048;-61
2023/06/14 07:16:42;;;;;;;7.13;2.47;;;16.10;99.90;;;;;;5041786;28;20622;-60
2023/06/14 07:19:11;;;;;;;5.45;2.00;;;16.10;99.90;;;;;;5059450;28;20065;-60
2023/06/14 07:21:39;;;;;;;12.07;2.22;;;16.20;99.90;;;;;;5043967;28;20384;-62
2023/06/14 07:24:07;;;;;;;4.88;2.30;;;16.30;99.90;;;;;;5065028;28;20063;-61
2023/06/14 07:26:36;;;;;;;10.77;2.63;;;16.40;99.90;;;;;;5052199;28;20049;-62
2023/06/14 07:29:05;;;;;;;6.82;2.30;;;16.50;99.90;;;;;;5053470;28;20045;-61
2023/06/14 07:31:35;;;;;;;5.85;2.13;;;16.70;99.90;;;;;;5046791;28;20041;-60
2023/06/14 07:34:03;;;;;;;10.55;2.58;;;16.70;99.90;;;;;;5064779;28;20056;-61
2023/06/14 07:36:30;;;;;;;5.35;2.38;;;16.80;99.90;;;;;;5065815;28;20056;-60
2023/06/14 07:38:59;;;;;;;11.50;2.30;;;16.90;99.90;;;;;;5055011;28;20037;-61
2023/06/14 07:41:27;;;;;;;10.25;2.25;;;17.10;99.90;;;;;;5058443;28;20064;-67
2023/06/14 07:43:55;;;;;;;7.50;2.40;;;17.20;99.90;;;;;;5068986;28;20507;-61
2023/06/14 07:46:24;;;;;;;5.38;2.30;;;17.20;99.90;;;;;;5062941;28;20057;-61
2023/06/14 07:48:52;;;;;;;4.28;2.10;;;17.30;99.90;;;;;;5066727;28;20047;-59
2023/06/14 07:51:21;;;;;;;4.47;2.17;;;17.40;99.90;;;;;;5050573;28;20071;-64
2023/06/14 07:53:49;;;;;;;14.90;2.50;;;17.50;99.90;;;;;;5063015;28;20045;-65
2023/06/14 07:56:17;;;;;;;4.35;2.60;;;18.20;99.90;;;;;;5042444;28;20049;-60
2023/06/14 07:58:44;;;;;;;4.07;2.17;;;17.70;99.90;;;;;;5049747;28;20056;-61
2023/06/14 08:01:13;;;;;;;6.13;2.50;;;17.90;99.90;;;;;;5051292;28;20045;-65
2023/06/14 08:03:41;;;;;;;6.90;2.03;;;18.00;99.90;;;;;;5064977;28;20380;-62
2023/06/14 08:06:09;;;;;;;5.43;1.92;;;18.10;99.90;;;;;;5051916;28;20052;-62
2023/06/14 08:08:37;;;;;;;12.68;2.40;;;18.20;99.90;;;;;;5056284;28;20451;-61
2023/06/14 08:11:04;;;;;;;7.20;2.20;;;18.30;99.90;;;;;;5063103;28;20053;-62
2023/06/14 08:13:33;;;;;;;5.72;2.20;;;18.40;99.70;;;;;;5057851;28;20372;-61
2023/06/14 08:16:01;;;;;;;3.38;2.10;;;18.50;99.80;;;;;;5060234;28;20072;-62
2023/06/14 08:18:30;;;;;;;4.88;2.17;;;18.60;99.40;;;;;;5060899;28;20511;-61
2023/06/14 08:20:57;;;;;;;8.80;2.00;;;18.70;99.70;;;;;;5055557;28;20432;-62
2023/06/14 08:23:25;;;;;;;11.48;2.50;;;18.80;99.70;;;;;;5066658;28;20052;-65
2023/06/14 08:25:53;;;;;;;10.63;2.63;;;18.90;99.90;;;;;;5067118;28;20044;-62
2023/06/14 08:28:21;;;;;;;8.15;1.98;;;19.00;99.80;;;;;;5059448;28;20045;-67
2023/06/14 08:30:49;;;;;;;3.78;1.98;;;19.10;99.70;;;;;;5048392;28;20511;-67
2023/06/14 08:33:16;;;;;;;3.47;1.92;;;19.10;99.30;;;;;;5056862;28;20045;-69
2023/06/14 08:35:44;;;;;;;7.55;2.45;;;19.10;99.50;;;;;;5058619;28;20043;-68
2023/06/14 08:38:12;;;;;;;5.93;1.95;;;19.20;99.70;;;;;;5059893;28;20045;-67
2023/06/14 08:40:41;;;;;;;7.00;2.38;;;19.20;99.40;;;;;;5059386;28;20098;-64
2023/06/14 08:43:09;;;;;;;11.38;2.45;;;19.30;99.30;;;;;;5055993;28;20351;-67
2023/06/14 08:45:37;;;;;;;9.80;2.40;;;19.30;99.20;;;;;;5063413;28;20511;-67
2023/06/14 08:48:07;;;;;;;6.25;2.28;;;19.40;98.40;;;;;;5053032;28;20061;-68
2023/06/14 08:50:39;;;;;;;6.45;2.33;;;19.50;98.10;;;;;;5053003;28;20056;-61
2023/06/14 08:53:10;;;;;;;7.50;2.20;;;19.60;97.90;;;;;;5068439;28;20036;-61
2023/06/14 08:55:39;;;;;;;9.60;2.38;;;19.80;97.80;;;;;;5055548;28;20037;-63
2023/06/14 08:58:14;;;;;;;6.60;2.47;;;19.80;97.80;;;;;;5066296;28;20355;-62
2023/06/14 09:00:42;;;;;;;7.25;2.75;;;20.00;97.70;;;;;;5060179;28;20041;-60
2023/06/14 09:03:14;;;;;;;7.20;2.17;;;20.10;97.40;;;;;;5055132;28;20055;-62
2023/06/14 09:05:43;;;;;;;9.68;2.65;;;20.10;97.70;;;;;;5060593;28;20051;-61
2023/06/14 09:08:11;;;;;;;8.57;2.30;;;20.20;97.60;;;;;;5057798;28;20411;-61
2023/06/14 09:10:40;;;;;;;8.95;2.55;;;20.30;97.70;;;;;;5064068;28;20407;-60
2023/06/14 09:13:09;;;;;;;5.55;2.33;;;20.40;97.50;;;;;;5057334;28;20387;-62
2023/06/14 09:15:37;;;;;;;9.02;3.35;;;20.50;96.90;;;;;;5054690;28;20056;-62
2023/06/14 09:18:05;;;;;;;15.73;3.15;;;20.50;97.00;;;;;;5062030;28;20056;-60
2023/06/14 09:20:33;;;;;;;7.28;2.55;;;20.70;97.10;;;;;;5064757;28;20388;-62
2023/06/14 09:23:02;;;;;;;13.65;3.22;;;20.80;96.40;;;;;;5051778;28;20049;-60
2023/06/14 09:25:30;;;;;;;12.20;2.63;;;20.90;96.60;;;;;;5058722;28;20037;-61
2023/06/14 09:28:08;;;;;;;6.93;2.67;;;21.00;96.10;;;;;;5055680;28;20067;-64
2023/06/14 09:30:38;;;;;;;7.03;2.65;;;21.10;96.00;;;;;;5066649;28;20064;-62
2023/06/14 09:33:07;;;;;;;4.35;2.00;;;21.20;95.70;;;;;;5068250;28;20045;-65
2023/06/14 09:35:35;;;;;;;6.03;2.63;;;21.30;95.90;;;;;;5067056;28;20412;-63
2023/06/14 09:38:04;;;;;;;14.20;2.63;;;21.30;96.10;;;;;;5056037;28;20053;-63
2023/06/14 09:40:35;;;;;;;9.57;2.42;;;21.40;95.10;;;;;;5056894;28;20057;-64
2023/06/14 09:43:10;;;;;;;8.20;2.80;;;21.60;93.60;;;;;;5055335;28;20045;-64
2023/06/14 09:45:45;;;;;;;8.57;2.78;;;21.80;93.50;;;;;;5052740;28;20047;-62
2023/06/14 09:48:17;;;;;;;9.30;2.40;;;21.90;93.10;;;;;;5058358;28;20048;-61
2023/06/14 09:50:47;;;;;;;7.88;2.35;;;22.10;92.00;;;;;;5065065;28;20044;-61
2023/06/14 09:53:17;;;;;;;7.40;2.83;;;22.20;92.20;;;;;;5061373;28;20056;-62
2023/06/14 09:55:46;;;;;;;9.07;2.90;;;22.30;91.90;;;;;;5063956;28;20045;-65
2023/06/14 09:58:15;;;;;;;5.50;2.85;;;22.40;92.20;;;;;;5038319;28;20053;-63
2023/06/14 10:00:44;;;;;;;6.72;2.53;;;22.50;91.90;;;;;;5051816;28;20053;-63
2023/06/14 10:03:16;;;;;;;15.40;2.70;;;22.60;91.40;;;;;;5051609;28;20055;-63
2023/06/14 10:05:48;;;;;;;12.27;2.65;;;22.70;91.40;;;;;;5051358;28;20060;-62
2023/06/14 10:08:24;;;;;;;8.25;3.10;;;22.90;90.60;;;;;;5056731;28;20104;-65
2023/06/14 10:10:53;;;;;;;7.05;2.95;;;23.10;89.20;;;;;;5054210;28;20064;-61
2023/06/14 10:13:21;;;;;;;7.70;3.13;;;23.10;89.40;;;;;;5066809;28;20040;-61
2023/06/14 10:16:26;;;;;;;3.85;2.53;;;23.20;89.10;;;;;;5061267;28;20075;-60
2023/06/14 10:19:11;;;;;;;6.10;2.83;;;23.30;89.00;;;;;;5057173;28;20053;-64
2023/06/14 10:21:48;;;;;;;10.82;3.17;;;23.50;88.20;;;;;;5061994;28;20041;-62
2023/06/14 10:24:19;;;;;;;8.10;2.92;;;23.60;90.10;;;;;;5045707;28;20636;-62
2023/06/14 10:26:52;;;;;;;6.05;2.65;;;23.60;89.20;;;;;;5048991;28;20083;-67
2023/06/14 10:29:19;;;;;;;7.05;3.13;;;23.80;89.20;;;;;;5049237;28;20041;-64
2023/06/14 10:31:57;;;;;;;6.10;2.53;;;23.90;88.40;;;;;;5050315;28;20064;-66
2023/06/14 10:34:27;;;;;;;12.63;2.95;;;24.00;86.70;;;;;;5057205;28;20504;-65
2023/06/14 10:37:06;;;;;;;9.68;2.95;;;24.20;86.10;;;;;;5062812;28;20056;-66
2023/06/14 10:39:42;;;;;;;8.13;3.13;;;24.20;85.00;;;;;;5046801;28;20052;-60
2023/06/14 10:42:10;;;;;;;9.50;2.88;;;24.40;85.30;;;;;;5057542;28;20045;-60
2023/06/14 10:44:46;;;;;;;7.28;2.83;;;24.50;86.20;;;;;;5049163;28;20037;-60
2023/06/14 10:47:29;;;;;;;5.00;2.60;;;24.50;82.80;;;;;;5055211;28;20052;-61
2023/06/14 10:50:03;;;;;;;8.38;2.83;;;24.60;81.30;;;;;;5049491;28;20045;-61
2023/06/14 10:52:43;;;;;;;6.95;2.63;;;24.60;80.10;;;;;;5052781;28;20473;-61
2023/06/14 10:55:15;;;;;;;5.10;2.90;;;24.60;78.80;;;;;;5048575;28;20056;-60
2023/06/14 10:57:55;;;;;;;9.02;3.13;;;24.60;80.20;;;;;;5052164;28;20041;-62
2023/06/14 11:00:26;;;;;;;10.75;3.20;;;24.70;81.60;;;;;;5056337;28;20053;-67
2023/06/14 11:03:07;;;;;;;4.95;2.47;;;24.90;81.30;;;;;;5069010;28;20057;-70
2023/06/14 11:05:57;;;;;;;10.55;2.88;;;24.90;82.90;;;;;;5069259;28;20531;-67
2023/06/14 11:09:05;;;;;;;12.27;3.67;;;25.10;81.20;;;;;;5058736;28;20045;-64
2023/06/14 11:11:36;;;;;;;6.45;2.95;;;25.10;80.10;;;;;;5065468;28;20512;-70
2023/06/14 11:14:04;;;;;;;8.27;3.30;;;25.30;77.70;;;;;;5067405;28;20219;-62
2023/06/14 11:16:33;;;;;;;6.25;2.88;;;25.30;78.40;;;;;;5066766;28;20539;-62
2023/06/14 11:19:05;;;;;;;5.95;3.08;;;25.30;78.10;;;;;;5038437;28;20052;-64
2023/06/14 11:21:33;;;;;;;11.32;3.05;;;25.30;77.90;;;;;;5053878;28;20640;-69
2023/06/14 11:24:01;;;;;;;6.40;2.65;;;25.40;78.90;;;;;;5061707;28;20052;-67
2023/06/14 11:26:30;;;;;;;11.05;3.42;;;25.50;77.50;;;;;;5052175;28;20057;-68
2023/06/14 11:29:00;;;;;;;3.90;2.30;;;25.50;78.40;;;;;;5070673;28;20041;-66
2023/06/14 11:31:29;;;;;;;13.50;3.15;;;25.70;78.00;;;;;;5070963;28;20041;-68
2023/06/14 11:33:58;;;;;;;5.68;2.65;;;25.70;76.50;;;;;;5071209;28;20776;-61
2023/06/14 11:36:31;;;;;;;4.97;2.88;;;25.80;76.00;;;;;;5054952;28;20045;-63
2023/06/14 11:39:00;;;;;;;4.35;2.40;;;25.90;74.60;;;;;;5066744;28;20056;-62
2023/06/14 11:41:36;;;;;;;6.85;2.83;;;26.00;75.40;;;;;;5065097;28;20041;-65
2023/06/14 11:44:06;;;;;;;5.78;2.92;;;26.10;75.40;;;;;;5062813;28;22006;-65
2023/06/14 11:46:34;;;;;;;4.55;2.53;;;26.30;75.50;;;;;;5065549;28;20040;-70
2023/06/14 11:49:04;;;;;;;4.20;2.60;;;26.40;74.70;;;;;;5050969;28;20056;-70
2023/06/14 11:51:33;;;;;;;10.48;3.10;;;26.50;75.30;;;;;;5049169;28;20056;-63
2023/06/14 11:54:06;;;;;;;7.27;2.90;;;26.70;74.40;;;;;;5052398;28;20056;-64
2023/06/14 11:56:34;;;;;;;8.27;3.03;;;26.80;74.80;;;;;;5052664;28;20047;-62
2023/06/14 11:59:03;;;;;;;8.27;2.45;;;26.90;74.10;;;;;;5069978;28;20519;-65
2023/06/14 12:01:31;;;;;;;7.30;3.03;;;27.10;74.00;;;;;;5058364;28;20637;-65
2023/06/14 12:04:00;;;;;;;5.45;2.80;;;27.30;73.50;;;;;;5064990;28;20498;-61
2023/06/14 12:06:33;;;;;;;9.27;3.00;;;27.70;72.30;;;;;;5058497;28;20063;-61
2023/06/14 12:09:12;;;;;;;9.50;2.92;;;27.60;72.80;;;;;;5066113;28;20045;-67
2023/06/14 12:11:40;;;;;;;9.23;3.20;;;27.80;72.40;;;;;;5062579;28;20040;-61
2023/06/14 12:14:10;;;;;;;4.85;3.00;;;27.20;71.00;;;;;;5065089;28;20048;-63
2023/06/14 12:16:40;;;;;;;3.10;2.33;;;28.10;72.40;;;;;;5064060;28;20056;-62
2023/06/14 12:19:17;;;;;;;9.75;2.88;;;28.30;71.90;;;;;;5052876;28;20054;-63
2023/06/14 12:21:48;;;;;;;9.18;2.83;;;28.60;71.80;;;;;;5062764;28;20033;-62
2023/06/14 12:24:17;;;;;;;7.82;2.78;;;28.80;69.40;;;;;;5065309;28;20063;-62
2023/06/14 12:26:45;;;;;;;11.27;3.00;;;28.90;68.20;;;;;;5061879;28;20396;-66
2023/06/14 12:29:12;;;;;;;15.60;3.05;;;29.10;68.70;;;;;;5064299;28;20040;-63
2023/06/14 12:31:41;;;;;;;10.32;3.35;;;29.20;66.80;;;;;;5065055;28;20052;-62
2023/06/14 12:34:09;;;;;;;8.15;3.10;;;29.40;66.40;;;;;;5059652;28;20041;-63
2023/06/14 12:36:41;;;;;;;4.60;2.95;;;29.40;66.90;;;;;;5061369;28;20056;-63
2023/06/14 12:39:10;;;;;;;7.53;3.13;;;29.60;66.40;;;;;;5051251;28;20032;-64
2023/06/14 12:41:37;;;;;;;6.78;2.90;;;29.80;67.10;;;;;;5065627;28;20053;-64
2023/06/14 12:44:05;;;;;;;5.35;2.83;;;29.70;67.40;;;;;;5059870;28;20048;-64
2023/06/14 12:46:34;;;;;;;5.35;2.65;;;29.90;66.20;;;;;;5059583;28;20053;-64
2023/06/14 12:49:02;;;;;;;6.03;3.58;;;30.00;64.00;;;;;;5050652;28;20068;-66
2023/06/14 12:51:30;;;;;;;5.22;3.20;;;29.90;63.70;;;;;;5051517;28;20041;-72
2023/06/14 12:53:58;;;;;;;6.45;2.58;;;30.10;64.50;;;;;;5061856;28;20048;-64
2023/06/14 12:56:26;;;;;;;7.55;2.78;;;30.10;64.80;;;;;;5064135;28;20048;-72
2023/06/14 12:58:54;;;;;;;5.68;3.13;;;30.30;64.50;;;;;;5067073;28;20040;-63